createdAt,value
2019-03-27T00:00:33.481Z,93.10
2019-03-27T00:03:01.886Z,93.10
2019-03-27T00:05:30.295Z,93.00
2019-03-27T00:07:58.751Z,93.00
2019-03-27T00:10:30.301Z,93.00
2019-03-27T00:12:58.686Z,92.90
2019-03-27T00:15:27.067Z,93.00
2019-03-27T00:17:55.537Z,93.00
2019-03-27T00:20:24.203Z,93.00
2019-03-27T00:22:52.622Z,92.90
2019-03-27T00:25:21.129Z,92.90
2019-03-27T00:27:49.522Z,92.90
2019-03-27T00:30:18.077Z,92.80
2019-03-27T00:32:46.510Z,93.00
2019-03-27T00:35:14.894Z,93.00
2019-03-27T00:37:43.298Z,93.10
2019-03-27T00:40:11.978Z,93.20
2019-03-27T00:42:40.408Z,93.20
2019-03-27T00:45:09.351Z,93.20
2019-03-27T00:47:37.827Z,93.30
2019-03-27T00:50:08.531Z,93.30
2019-03-27T00:52:36.936Z,93.40
2019-03-27T00:55:07.245Z,93.40
2019-03-27T00:57:35.639Z,93.50
2019-03-27T01:00:09.942Z,93.50
2019-03-27T01:02:38.331Z,93.50
2019-03-27T01:05:06.804Z,93.60
2019-03-27T01:07:35.193Z,93.60
2019-03-27T01:10:03.753Z,93.70
2019-03-27T01:12:32.149Z,93.70
2019-03-27T01:15:00.554Z,93.90
2019-03-27T01:17:28.943Z,94.00
2019-03-27T01:19:57.341Z,94.20
2019-03-27T01:22:25.739Z,94.20
2019-03-27T01:24:54.146Z,94.70
2019-03-27T01:27:22.545Z,94.40
2019-03-27T01:29:51.014Z,94.50
2019-03-27T01:32:19.410Z,94.60
2019-03-27T01:34:47.818Z,94.60
2019-03-27T01:37:16.214Z,94.60
2019-03-27T01:39:44.620Z,94.50
2019-03-27T01:42:13.031Z,94.50
2019-03-27T01:44:41.443Z,94.40
2019-03-27T01:47:09.868Z,94.50
2019-03-27T01:49:38.250Z,94.60
2019-03-27T01:52:08.152Z,94.70
2019-03-27T01:54:36.658Z,94.70
2019-03-27T01:57:05.143Z,94.70
2019-03-27T01:59:33.560Z,94.70
2019-03-27T02:02:01.956Z,94.60
2019-03-27T02:04:30.355Z,94.50
2019-03-27T02:06:58.750Z,94.50
2019-03-27T02:09:27.155Z,94.50
2019-03-27T02:11:55.569Z,94.40
2019-03-27T02:14:23.984Z,94.30
2019-03-27T02:16:52.402Z,94.40
2019-03-27T02:19:20.789Z,94.40
2019-03-27T02:21:49.199Z,94.40
2019-03-27T02:24:17.586Z,94.40
2019-03-27T02:26:46.018Z,94.40
2019-03-27T02:29:14.434Z,94.50
2019-03-27T02:31:42.851Z,94.50
2019-03-27T02:34:11.519Z,94.50
2019-03-27T02:36:39.907Z,94.60
2019-03-27T02:39:08.298Z,94.60
2019-03-27T02:41:37.361Z,94.60
2019-03-27T02:44:05.749Z,94.60
2019-03-27T02:46:34.130Z,94.60
2019-03-27T02:49:02.539Z,94.70
2019-03-27T02:51:30.947Z,94.70
2019-03-27T02:53:59.352Z,94.70
2019-03-27T02:56:27.953Z,94.70
2019-03-27T02:58:56.351Z,94.80
2019-03-27T03:01:24.796Z,94.80
2019-03-27T03:03:53.230Z,94.90
2019-03-27T03:06:21.655Z,95.00
2019-03-27T03:08:50.046Z,95.00
2019-03-27T03:11:18.472Z,95.10
2019-03-27T03:13:46.875Z,95.20
2019-03-27T03:16:41.971Z,95.20
2019-03-27T03:19:04.839Z,95.30
2019-03-27T03:21:33.242Z,95.30
2019-03-27T03:24:01.631Z,95.40
2019-03-27T03:26:30.306Z,95.40
2019-03-27T03:28:58.733Z,95.50
2019-03-27T03:31:27.123Z,95.60
2019-03-27T03:33:55.592Z,95.70
2019-03-27T03:36:24.029Z,95.80
2019-03-27T03:38:52.420Z,95.80
2019-03-27T03:41:20.843Z,95.90
2019-03-27T03:43:49.257Z,95.90
2019-03-27T03:46:17.774Z,96.00
2019-03-27T03:48:46.542Z,96.10
2019-03-27T03:51:15.647Z,96.20
2019-03-27T03:53:45.131Z,96.20
2019-03-27T03:56:15.081Z,96.40
2019-03-27T03:58:43.637Z,96.40
2019-03-27T04:01:12.302Z,96.50
2019-03-27T04:03:42.950Z,96.60
2019-03-27T04:06:11.366Z,96.70
2019-03-27T04:08:39.898Z,96.70
2019-03-27T04:11:08.330Z,96.80
2019-03-27T04:13:36.747Z,96.80
2019-03-27T04:16:05.222Z,96.80
2019-03-27T04:18:33.642Z,96.90
2019-03-27T04:21:02.109Z,97.00
2019-03-27T04:23:30.535Z,97.00
2019-03-27T04:26:09.458Z,97.20
2019-03-27T04:28:29.079Z,97.30
2019-03-27T04:30:57.489Z,97.40
2019-03-27T04:33:25.930Z,97.50
2019-03-27T04:35:54.355Z,97.60
2019-03-27T04:38:22.750Z,97.70
2019-03-27T04:40:51.641Z,97.70
2019-03-27T04:43:20.551Z,97.80
2019-03-27T04:45:48.984Z,97.90
2019-03-27T04:48:17.371Z,97.90
2019-03-27T04:50:46.041Z,98.10
2019-03-27T04:53:14.445Z,98.10
2019-03-27T04:55:42.843Z,98.20
2019-03-27T04:58:11.407Z,98.20
2019-03-27T05:00:39.827Z,98.20
2019-03-27T05:03:08.239Z,98.20
2019-03-27T05:05:36.663Z,98.20
2019-03-27T05:08:06.062Z,98.10
2019-03-27T05:10:34.554Z,98.20
2019-03-27T05:13:02.964Z,98.20
2019-03-27T05:15:31.528Z,98.10
2019-03-27T05:18:00.038Z,98.20
2019-03-27T05:20:28.857Z,98.10
2019-03-27T05:22:57.495Z,98.20
2019-03-27T05:25:25.889Z,98.20
2019-03-27T05:27:56.084Z,98.20
2019-03-27T05:30:28.218Z,98.30
2019-03-27T05:32:57.164Z,98.30
2019-03-27T05:35:25.627Z,98.30
2019-03-27T05:37:54.190Z,98.30
2019-03-27T05:40:22.602Z,98.30
2019-03-27T05:43:00.600Z,98.30
2019-03-27T05:45:26.999Z,98.40
2019-03-27T05:47:59.954Z,98.40
2019-03-27T05:50:25.573Z,98.30
2019-03-27T05:52:53.994Z,98.30
2019-03-27T05:55:22.419Z,98.20
2019-03-27T05:57:50.890Z,98.20
2019-03-27T06:00:19.313Z,98.10
2019-03-27T06:02:47.710Z,98.10
2019-03-27T06:05:16.119Z,98.00
2019-03-27T06:07:44.526Z,98.00
2019-03-27T06:10:16.207Z,97.90
2019-03-27T06:12:43.216Z,97.70
2019-03-27T06:15:11.701Z,97.60
2019-03-27T06:17:40.121Z,97.50
2019-03-27T06:20:08.691Z,97.40
2019-03-27T06:22:37.090Z,97.30
2019-03-27T06:25:07.761Z,97.30
2019-03-27T06:27:36.355Z,97.20
2019-03-27T06:30:06.307Z,97.20
2019-03-27T06:32:35.473Z,97.10
2019-03-27T06:35:05.743Z,97.10
2019-03-27T06:37:35.111Z,97.00
2019-03-27T06:40:04.884Z,96.90
2019-03-27T06:42:33.275Z,96.90
2019-03-27T06:45:01.974Z,96.80
2019-03-27T06:47:30.374Z,97.00
2019-03-27T06:49:59.083Z,96.50
2019-03-27T06:52:27.494Z,96.80
2019-03-27T06:54:55.892Z,96.40
2019-03-27T06:57:24.382Z,96.20
2019-03-27T06:59:52.853Z,96.00
2019-03-27T07:02:21.289Z,95.80
2019-03-27T07:04:49.696Z,95.70
2019-03-27T07:07:18.114Z,95.60
2019-03-27T07:09:46.694Z,95.40
2019-03-27T07:12:21.026Z,95.10
2019-03-27T07:14:45.368Z,95.00
2019-03-27T07:17:13.782Z,94.80
2019-03-27T07:19:42.191Z,94.60
2019-03-27T07:22:29.937Z,94.70
2019-03-27T07:24:58.351Z,94.50
2019-03-27T07:27:26.741Z,94.50
2019-03-27T07:29:55.167Z,94.30
2019-03-27T07:32:23.567Z,94.20
2019-03-27T07:35:11.307Z,94.30
2019-03-27T07:37:39.715Z,94.10
2019-03-27T07:40:08.753Z,93.90
2019-03-27T07:42:37.150Z,93.70
2019-03-27T07:45:08.071Z,93.50
2019-03-27T07:47:36.470Z,93.50
2019-03-27T07:50:06.546Z,93.30
2019-03-27T07:52:34.946Z,93.30
2019-03-27T07:55:03.807Z,93.30
2019-03-27T07:57:32.212Z,93.40
2019-03-27T08:00:00.601Z,93.60
2019-03-27T08:02:29.018Z,93.60
2019-03-27T08:04:57.425Z,93.70
2019-03-27T08:07:27.017Z,94.20
2019-03-27T08:09:55.960Z,94.00
2019-03-27T08:12:24.355Z,94.00
2019-03-27T08:14:52.787Z,93.90
2019-03-27T08:17:21.173Z,93.90
2019-03-27T08:19:49.585Z,93.80
2019-03-27T08:22:17.997Z,93.50
2019-03-27T08:24:46.398Z,93.20
2019-03-27T08:27:14.806Z,92.90
2019-03-27T08:29:43.219Z,92.70
2019-03-27T08:32:11.922Z,92.50
2019-03-27T08:34:40.318Z,92.30
2019-03-27T08:37:08.726Z,92.10
2019-03-27T08:39:37.125Z,91.70
2019-03-27T08:42:05.537Z,91.00
2019-03-27T08:44:33.954Z,91.20
2019-03-27T08:47:02.355Z,91.00
2019-03-27T08:49:30.754Z,91.00
2019-03-27T08:51:59.175Z,91.00
2019-03-27T08:54:27.589Z,91.10
2019-03-27T08:56:56.275Z,91.30
2019-03-27T08:59:24.907Z,91.40
2019-03-27T09:01:53.399Z,91.30
2019-03-27T09:04:21.953Z,91.00
2019-03-27T09:06:50.414Z,90.80
2019-03-27T09:09:18.940Z,90.80
2019-03-27T09:11:47.390Z,90.40
2019-03-27T09:14:15.784Z,90.40
2019-03-27T09:16:44.225Z,90.40
2019-03-27T09:19:12.618Z,90.10
2019-03-27T09:21:41.108Z,90.00
2019-03-27T09:24:09.505Z,89.70
2019-03-27T09:26:37.912Z,87.20
2019-03-27T09:29:08.432Z,86.10
2019-03-27T09:31:44.487Z,86.00
2019-03-27T09:34:06.934Z,86.10
2019-03-27T09:36:35.334Z,86.20
2019-03-27T09:39:05.366Z,86.30
2019-03-27T09:41:33.753Z,86.50
2019-03-27T09:44:02.155Z,87.80
2019-03-27T09:46:30.562Z,87.30
2019-03-27T09:48:58.977Z,85.90
2019-03-27T09:51:27.388Z,85.40
2019-03-27T09:53:55.782Z,85.10
2019-03-27T09:56:24.174Z,84.70
2019-03-27T09:58:52.581Z,84.20
2019-03-27T10:01:21.013Z,83.40
2019-03-27T10:03:49.399Z,82.90
2019-03-27T10:06:17.793Z,83.00
2019-03-27T10:08:46.224Z,81.90
2019-03-27T10:11:14.622Z,81.00
2019-03-27T10:13:43.039Z,81.20
2019-03-27T10:16:11.430Z,81.70
2019-03-27T10:18:39.844Z,81.60
2019-03-27T10:21:08.242Z,81.20
2019-03-27T10:23:36.676Z,81.20
2019-03-27T10:26:05.063Z,81.00
2019-03-27T10:28:33.562Z,81.90
2019-03-27T10:31:01.972Z,81.50
2019-03-27T10:33:30.378Z,82.10
2019-03-27T10:35:58.788Z,82.10
2019-03-27T10:38:27.526Z,82.20
2019-03-27T10:40:55.919Z,82.10
2019-03-27T10:43:24.314Z,81.40
2019-03-27T10:45:52.750Z,81.90
2019-03-27T10:48:21.150Z,81.50
2019-03-27T10:50:49.564Z,80.10
2019-03-27T10:53:17.979Z,79.10
2019-03-27T10:55:46.391Z,78.30
2019-03-27T10:58:14.837Z,77.20
2019-03-27T11:00:43.249Z,76.10
2019-03-27T11:03:11.775Z,76.00
2019-03-27T11:05:40.203Z,75.80
2019-03-27T11:08:11.357Z,75.80
2019-03-27T11:10:38.786Z,75.60
2019-03-27T11:13:07.442Z,76.30
2019-03-27T11:15:35.837Z,77.20
2019-03-27T11:18:04.447Z,77.60
2019-03-27T11:20:32.915Z,78.00
2019-03-27T11:23:01.475Z,78.60
2019-03-27T11:25:32.996Z,77.70
2019-03-27T11:28:00.274Z,77.70
2019-03-27T11:30:36.923Z,77.40
2019-03-27T11:33:06.260Z,76.40
2019-03-27T11:35:34.658Z,75.60
2019-03-27T11:38:03.087Z,74.60
2019-03-27T11:40:31.490Z,74.20
2019-03-27T11:42:59.862Z,73.20
2019-03-27T11:45:28.282Z,73.20
2019-03-27T11:47:56.680Z,73.70
2019-03-27T11:50:25.119Z,74.20
2019-03-27T11:52:53.835Z,74.30
2019-03-27T11:55:22.224Z,74.30
2019-03-27T11:57:50.631Z,74.10
2019-03-27T12:00:19.765Z,74.30
2019-03-27T12:02:48.171Z,73.70
2019-03-27T12:05:16.839Z,73.20
2019-03-27T12:07:45.338Z,72.40
2019-03-27T12:10:13.999Z,72.10
2019-03-27T12:12:42.395Z,72.10
2019-03-27T12:15:11.141Z,71.60
2019-03-27T12:17:39.541Z,71.00
2019-03-27T12:20:08.895Z,70.20
2019-03-27T12:22:37.292Z,70.10
2019-03-27T12:25:06.509Z,68.20
2019-03-27T12:27:34.936Z,68.10
2019-03-27T12:30:04.410Z,66.80
2019-03-27T12:32:32.879Z,66.00
2019-03-27T12:35:01.413Z,64.40
2019-03-27T12:37:29.798Z,63.10
2019-03-27T12:39:58.187Z,62.50
2019-03-27T12:42:26.593Z,61.70
2019-03-27T12:44:54.982Z,59.60
2019-03-27T12:47:23.393Z,58.20
2019-03-27T12:50:13.956Z,57.40
2019-03-27T12:52:47.022Z,57.20
2019-03-27T12:55:15.526Z,55.70
2019-03-27T12:57:44.188Z,56.00
2019-03-27T13:00:12.923Z,57.10
2019-03-27T13:02:41.600Z,56.70
2019-03-27T13:05:12.103Z,57.00
2019-03-27T13:07:49.841Z,56.50
2019-03-27T13:10:10.879Z,55.50
2019-03-27T13:12:39.342Z,55.30
2019-03-27T13:15:08.619Z,55.10
2019-03-27T13:17:37.030Z,55.50
2019-03-27T13:20:07.868Z,56.20
2019-03-27T13:22:38.278Z,56.00
2019-03-27T13:25:07.845Z,55.60
2019-03-27T13:27:36.287Z,54.90
2019-03-27T13:30:07.758Z,54.60
2019-03-27T13:32:36.318Z,54.10
2019-03-27T13:35:08.335Z,54.70
2019-03-27T13:37:36.798Z,54.70
2019-03-27T13:40:08.031Z,54.50
2019-03-27T13:42:36.591Z,54.40
2019-03-27T13:45:09.051Z,55.00
2019-03-27T13:47:37.449Z,54.90
2019-03-27T13:50:13.147Z,54.20
2019-03-27T13:52:42.271Z,54.10
2019-03-27T13:55:11.271Z,54.40
2019-03-27T13:57:39.862Z,54.90
2019-03-27T14:00:11.306Z,55.50
2019-03-27T14:02:39.994Z,55.80
2019-03-27T14:05:08.773Z,56.30
2019-03-27T14:07:38.097Z,56.50
2019-03-27T14:10:07.966Z,55.90
2019-03-27T14:12:36.641Z,55.90
2019-03-27T14:15:07.922Z,56.40
2019-03-27T14:17:36.339Z,56.70
2019-03-27T14:20:07.071Z,57.20
2019-03-27T14:22:35.496Z,57.60
2019-03-27T14:25:05.894Z,57.80
2019-03-27T14:27:34.297Z,58.00
2019-03-27T14:30:02.766Z,58.40
2019-03-27T14:32:31.169Z,58.40
2019-03-27T14:34:59.651Z,58.10
2019-03-27T14:37:28.035Z,58.00
2019-03-27T14:39:56.456Z,57.80
2019-03-27T14:42:25.074Z,57.90
2019-03-27T14:44:53.535Z,58.00
2019-03-27T14:47:21.979Z,58.50
2019-03-27T14:49:52.045Z,58.00
2019-03-27T14:52:20.514Z,57.40
2019-03-27T14:54:48.934Z,56.70
2019-03-27T14:57:17.668Z,56.20
2019-03-27T14:59:46.061Z,55.60
2019-03-27T15:02:14.475Z,55.40
2019-03-27T15:04:42.942Z,54.40
2019-03-27T15:07:11.355Z,53.40
2019-03-27T15:09:39.747Z,53.50
2019-03-27T15:12:08.274Z,53.50
2019-03-27T15:14:36.687Z,53.80
2019-03-27T15:17:05.722Z,54.30
2019-03-27T15:19:34.142Z,54.50
2019-03-27T15:22:02.567Z,54.90
2019-03-27T15:24:30.967Z,55.00
2019-03-27T15:26:59.390Z,55.80
2019-03-27T15:29:27.795Z,55.90
2019-03-27T15:31:56.256Z,55.90
2019-03-27T15:34:24.745Z,56.20
2019-03-27T15:36:53.146Z,56.60
2019-03-27T15:39:21.663Z,57.10
2019-03-27T15:41:50.055Z,57.30
2019-03-27T15:44:18.448Z,57.50
2019-03-27T15:46:46.864Z,57.60
2019-03-27T15:49:15.265Z,57.80
2019-03-27T15:51:43.668Z,57.70
2019-03-27T15:54:12.147Z,57.30
2019-03-27T15:56:40.539Z,57.30
2019-03-27T15:59:09.139Z,57.20
2019-03-27T16:01:37.699Z,57.00
2019-03-27T16:04:06.170Z,56.90
2019-03-27T16:06:34.566Z,56.70
2019-03-27T16:09:03.042Z,56.80
2019-03-27T16:11:31.510Z,57.10
2019-03-27T16:13:59.935Z,57.10
2019-03-27T16:16:28.351Z,56.90
2019-03-27T16:18:57.114Z,57.10
2019-03-27T16:21:25.516Z,57.50
2019-03-27T16:24:05.730Z,57.90
2019-03-27T16:26:24.041Z,57.80
2019-03-27T16:28:52.678Z,58.00
2019-03-27T16:31:21.061Z,58.30
2019-03-27T16:33:49.455Z,58.30
2019-03-27T16:36:17.864Z,58.60
2019-03-27T16:38:46.261Z,58.70
2019-03-27T16:41:14.744Z,58.90
2019-03-27T16:43:44.343Z,59.00
2019-03-27T16:46:13.046Z,59.20
2019-03-27T16:48:41.557Z,59.30
2019-03-27T16:51:10.264Z,59.70
2019-03-27T16:53:47.044Z,59.80
2019-03-27T16:56:15.462Z,59.70
2019-03-27T16:58:43.859Z,60.10
2019-03-27T17:01:12.341Z,60.30
2019-03-27T17:03:40.764Z,60.60
2019-03-27T17:06:09.157Z,61.20
2019-03-27T17:08:37.586Z,61.80
2019-03-27T17:11:06.094Z,62.30
2019-03-27T17:13:34.486Z,62.80
2019-03-27T17:16:02.907Z,63.20
2019-03-27T17:18:31.310Z,63.60
2019-03-27T17:21:00.131Z,64.00
2019-03-27T17:23:28.606Z,64.40
2019-03-27T17:25:57.748Z,64.70
2019-03-27T17:28:26.326Z,65.00
2019-03-27T17:30:54.778Z,65.20
2019-03-27T17:33:23.229Z,65.50
2019-03-27T17:35:51.656Z,66.10
2019-03-27T17:38:20.178Z,66.70
2019-03-27T17:40:48.584Z,67.40
2019-03-27T17:43:17.043Z,68.10
2019-03-27T17:45:45.524Z,68.80
2019-03-27T17:48:13.931Z,69.40
2019-03-27T17:50:42.323Z,70.10
2019-03-27T17:53:10.726Z,70.50
2019-03-27T17:55:39.189Z,71.10
2019-03-27T17:58:07.583Z,71.60
2019-03-27T18:00:43.960Z,72.10
2019-03-27T18:03:12.543Z,72.80
2019-03-27T18:05:41.150Z,73.10
2019-03-27T18:08:09.915Z,73.40
2019-03-27T18:10:38.885Z,73.90
2019-03-27T18:13:07.291Z,74.30
2019-03-27T18:15:35.789Z,74.70
2019-03-27T18:18:04.190Z,74.80
2019-03-27T18:20:32.603Z,75.10
2019-03-27T18:23:01.050Z,75.50
2019-03-27T18:25:29.434Z,75.50
2019-03-27T18:27:59.408Z,75.70
2019-03-27T18:30:27.845Z,75.90
2019-03-27T18:32:56.230Z,75.90
2019-03-27T18:35:24.649Z,76.10
2019-03-27T18:37:53.349Z,76.30
2019-03-27T18:40:21.820Z,76.60
2019-03-27T18:42:50.210Z,77.00
2019-03-27T18:45:18.895Z,77.10
2019-03-27T18:47:47.286Z,77.50
2019-03-27T18:50:15.974Z,77.60
2019-03-27T18:52:44.417Z,77.90
2019-03-27T18:55:25.519Z,78.20
2019-03-27T18:57:43.315Z,78.50
2019-03-27T19:00:12.022Z,78.80
2019-03-27T19:02:40.431Z,79.30
2019-03-27T19:05:10.106Z,79.70
2019-03-27T19:07:38.486Z,80.20
2019-03-27T19:10:07.719Z,80.80
2019-03-27T19:12:36.128Z,81.30
2019-03-27T19:15:09.242Z,82.00
2019-03-27T19:17:37.626Z,82.90
2019-03-27T19:20:08.110Z,83.90
2019-03-27T19:22:36.580Z,84.50
2019-03-27T19:25:07.211Z,84.90
2019-03-27T19:27:35.707Z,85.20
2019-03-27T19:30:06.702Z,85.30
2019-03-27T19:32:35.165Z,85.30
2019-03-27T19:35:04.606Z,85.30
2019-03-27T19:37:33.235Z,85.40
2019-03-27T19:40:01.790Z,85.60
2019-03-27T19:42:30.376Z,86.10
2019-03-27T19:44:58.838Z,86.50
2019-03-27T19:47:27.303Z,87.00
2019-03-27T19:49:55.743Z,87.20
2019-03-27T19:52:24.144Z,87.50
2019-03-27T19:54:52.539Z,87.80
2019-03-27T19:57:20.968Z,88.10
2019-03-27T19:59:49.333Z,89.00
2019-03-27T20:02:17.742Z,89.50
2019-03-27T20:04:46.182Z,90.00
2019-03-27T20:07:14.710Z,90.20
2019-03-27T20:09:43.118Z,90.50
2019-03-27T20:12:11.534Z,90.70
2019-03-27T20:14:42.394Z,91.00
2019-03-27T20:17:10.134Z,91.30
2019-03-27T20:19:38.871Z,91.50
2019-03-27T20:22:07.275Z,91.70
2019-03-27T20:24:41.164Z,92.00
2019-03-27T20:27:05.995Z,92.30
2019-03-27T20:29:34.393Z,92.50
2019-03-27T20:32:02.867Z,92.80
2019-03-27T20:34:31.272Z,93.10
2019-03-27T20:36:59.747Z,93.30
2019-03-27T20:39:28.173Z,93.70
2019-03-27T20:41:56.704Z,93.90
2019-03-27T20:44:25.115Z,94.20
2019-03-27T20:46:53.823Z,94.50
2019-03-27T20:49:22.235Z,94.90
2019-03-27T20:51:50.659Z,94.80
2019-03-27T20:54:19.138Z,94.90
2019-03-27T20:56:47.566Z,95.00
2019-03-27T20:59:18.330Z,95.50
2019-03-27T21:01:46.143Z,95.50
2019-03-27T21:04:14.566Z,95.80
2019-03-27T21:06:42.954Z,96.00
2019-03-27T21:09:11.727Z,96.10
2019-03-27T21:11:40.155Z,96.20
2019-03-27T21:14:08.548Z,96.30
2019-03-27T21:16:37.008Z,96.40
2019-03-27T21:19:05.415Z,96.50
2019-03-27T21:21:33.911Z,96.60
2019-03-27T21:24:02.347Z,96.80
2019-03-27T21:26:30.783Z,96.90
2019-03-27T21:28:59.239Z,97.10
2019-03-27T21:31:27.666Z,97.30
2019-03-27T21:33:57.680Z,97.40
2019-03-27T21:36:26.503Z,97.60
2019-03-27T21:38:54.902Z,97.80
2019-03-27T21:41:24.151Z,98.00
2019-03-27T21:43:52.571Z,98.10
2019-03-27T21:46:21.091Z,98.10
2019-03-27T21:48:49.501Z,98.30
2019-03-27T21:51:17.927Z,98.20
2019-03-27T21:53:50.630Z,98.20
2019-03-27T21:56:16.436Z,98.40
2019-03-27T21:58:44.839Z,98.50
2019-03-27T22:01:13.339Z,98.60
2019-03-27T22:03:41.765Z,98.80
2019-03-27T22:06:10.236Z,98.90
2019-03-27T22:08:38.739Z,99.00
2019-03-27T22:11:07.120Z,99.20
2019-03-27T22:13:35.510Z,99.30
2019-03-27T22:16:04.071Z,99.40
2019-03-27T22:18:32.466Z,99.40
2019-03-27T22:21:00.952Z,99.40
2019-03-27T22:23:29.383Z,99.40
2019-03-27T22:25:57.896Z,99.50
2019-03-27T22:28:26.302Z,99.50
2019-03-27T22:30:54.692Z,99.60
2019-03-27T22:33:23.090Z,99.80
2019-03-27T22:35:51.803Z,99.90
2019-03-27T22:38:20.209Z,99.90
2019-03-27T22:40:48.618Z,99.90
2019-03-27T22:43:17.032Z,99.90
2019-03-27T22:45:45.418Z,99.90
2019-03-27T22:48:13.812Z,99.90
2019-03-27T22:50:43.835Z,99.90
2019-03-27T22:53:12.488Z,99.90
2019-03-27T22:55:49.902Z,99.90
2019-03-27T22:58:13.015Z,99.90
2019-03-27T23:00:43.062Z,99.90
2019-03-27T23:03:18.102Z,99.90
2019-03-27T23:05:41.607Z,99.90
2019-03-27T23:08:09.997Z,99.90
2019-03-27T23:10:38.412Z,99.90
2019-03-27T23:13:06.798Z,99.90
2019-03-27T23:15:35.206Z,99.90
2019-03-27T23:18:03.647Z,99.90
2019-03-27T23:20:32.034Z,99.90
2019-03-27T23:23:00.426Z,99.90
2019-03-27T23:25:28.951Z,99.90
2019-03-27T23:27:57.387Z,99.90
2019-03-27T23:30:25.864Z,99.90
2019-03-27T23:32:54.384Z,99.90
2019-03-27T23:35:22.805Z,99.90
2019-03-27T23:37:51.198Z,99.90
2019-03-27T23:40:19.638Z,99.90
2019-03-27T23:42:48.042Z,99.90
2019-03-27T23:45:16.555Z,99.90
2019-03-27T23:47:45.006Z,99.90
2019-03-27T23:50:13.395Z,99.90
2019-03-27T23:52:41.868Z,99.90
2019-03-27T23:55:10.524Z,99.90
2019-03-27T23:57:38.920Z,99.90
